Nord Imagination — 3FIA8 — position and weather

sailwx.info

Track history (hours):
 
Tides and Currents Weather Stations Pressure Air Temp Water Temp Dewpoint Dewpoint Depression Visibility Wind Speed Wind Dir Waves Ship Positions

Nord Imagination

Last reported at 2017-Jul-25 15:20 UTC. Time now 2017-Jul-26 10:27 UTC.
Position N 37°07' W 012°05'.

Length 179 m; draft 10 m.

Type: Ship (hazmat cat D). MMSI: 354828000.

Date/timePositionNaut miles runAvg speedWind from/ knotsBaromVisibWave heightAir tempDewpointWater temp
2017-Jul-25 15:20N 37°07' W 012°05'1911.9
2017-Jul-25 13:44N 37°03' W 011°41'311.6
2017-Jul-25 13:30N 37°02' W 011°38'611.4
2017-Jul-25 12:59N 37°01' W 011°31'811.2
2017-Jul-25 12:16N 36°59' W 011°21'511.6
2017-Jul-25 11:53N 36°58' W 011°16'612.6
2017-Jul-25 11:25N 36°56' W 011°08'1811.6
2017-Jul-25 09:54N 36°50' W 010°48'510.8
2017-Jul-25 09:27N 36°48' W 010°42'711.1
2017-Jul-25 08:51N 36°45' W 010°35'411.3
2017-Jul-25 08:30N 36°43' W 010°31'3611.3
2017-Jul-25 05:20N 36°27' W 009°51'411.4
2017-Jul-25 05:00N 36°26' W 009°47'711.3
2017-Jul-25 04:25N 36°22' W 009°40'511.6
2017-Jul-25 04:00N 36°20' W 009°34'611.5
2017-Jul-25 03:30N 36°18' W 009°28'611.4
2017-Jul-25 03:00N 36°15' W 009°21'611.6
2017-Jul-25 02:30N 36°15' W 009°14'611.6
2017-Jul-25 02:00N 36°16' W 009°07'611.6
2017-Jul-25 01:30N 36°16' W 008°60'611.4
2017-Jul-25 01:00N 36°16' W 008°53'611.4
2017-Jul-25 00:30N 36°15' W 008°46'611.9
2017-Jul-25 00:00N 36°15' W 008°38'611.9
2017-Jul-24 23:30N 36°15' W 008°31'612.0
2017-Jul-24 22:58N 36°15' W 008°23'612.0
2017-Jul-24 22:30N 36°15' W 008°16'612.0
2017-Jul-24 22:00N 36°16' W 008°08'712.1
2017-Jul-24 21:27N 36°16' W 008°00'511.8
2017-Jul-24 21:00N 36°15' W 007°54'912.1
2017-Jul-24 20:17N 36°15' W 007°43'56 2.0
2017-Jul-23 16:22N 36°55' W 006°54'  
2017-Jul-19 02:27N 33°03' W 010°06'1613.9
2017-Jul-19 01:16N 32°48' W 010°15'413.7
2017-Jul-19 01:00N 32°45' W 010°17'714.0
2017-Jul-19 00:29N 32°38' W 010°21'1214.1
2017-Jul-18 23:40N 32°28' W 010°28'1114.3
2017-Jul-18 22:52N 32°18' W 010°33'514.2
2017-Jul-18 22:30N 32°13' W 010°36'714.1
2017-Jul-18 22:01N 32°07' W 010°40'814.2
2017-Jul-18 21:29N 32°00' W 010°44'714.1
2017-Jul-18 21:01N 31°54' W 010°47'713.9
2017-Jul-18 20:29N 31°48' W 010°51'713.8
2017-Jul-18 20:00N 31°42' W 010°55'713.9
2017-Jul-18 19:30N 31°36' W 010°58'714.1
2017-Jul-18 19:00N 31°30' W 011°02'714.1
2017-Jul-18 18:30N 31°23' W 011°06'713.8
2017-Jul-18 18:00N 31°17' W 011°10'713.8
2017-Jul-18 17:30N 31°11' W 011°13'713.8
2017-Jul-18 17:01N 31°05' W 011°17'813.8
2017-Jul-18 16:27N 30°58' W 011°21'614.1
2017-Jul-18 16:00N 30°53' W 011°24'714.3
2017-Jul-18 15:30N 30°46' W 011°28'714.5
2017-Jul-18 15:00N 30°40' W 011°32'1714.7
2017-Jul-18 13:52N 30°25' W 011°41'514.7
2017-Jul-18 13:30N 30°20' W 011°44'714.5
2017-Jul-18 13:00N 30°14' W 011°48'4314.5
2017-Jul-18 10:02N 29°36' W 012°11'114.2
2017-Jul-18 09:58N 29°35' W 012°11'714.4
2017-Jul-18 09:30N 29°29' W 012°15'814.3
2017-Jul-18 08:55N 29°21' W 012°19'614.2
2017-Jul-18 08:30N 29°16' W 012°22'914.2
2017-Jul-18 07:54N 29°09' W 012°27'614.9
2017-Jul-18 07:30N 29°03' W 012°30'714.9
2017-Jul-18 07:00N 28°57' W 012°35'814.7
2017-Jul-18 06:29N 28°52' W 012°41'714.6
2017-Jul-18 06:00N 28°47' W 012°47'714.5
2017-Jul-18 05:30N 28°42' W 012°53'714.4
2017-Jul-18 05:00N 28°36' W 012°58'714.4
2017-Jul-18 04:30N 28°31' W 013°04'714.4
2017-Jul-18 04:00N 28°26' W 013°10'714.3
2017-Jul-18 03:30N 28°21' W 013°15'714.3
2017-Jul-18 03:00N 28°16' W 013°21'714.2
2017-Jul-18 02:30N 28°11' W 013°27'714.4
2017-Jul-18 02:00N 28°06' W 013°33'714.1
2017-Jul-18 01:30N 28°02' W 013°39'714.1
2017-Jul-18 01:00N 27°57' W 013°45'714.4
2017-Jul-18 00:30N 27°52' W 013°50'714.5
2017-Jul-18 00:00N 27°46' W 013°56'714.5
2017-Jul-17 23:30N 27°41' W 014°02'714.4
2017-Jul-17 23:00N 27°36' W 014°08'714.3
2017-Jul-17 22:30N 27°31' W 014°13'814.9
2017-Jul-17 21:59N 27°25' W 014°19'715.1
2017-Jul-17 21:30N 27°20' W 014°25'714.7
2017-Jul-17 21:00N 27°14' W 014°30'714.6
2017-Jul-17 20:30N 27°09' W 014°36'714.2
2017-Jul-17 20:00N 27°04' W 014°41'2014.5
2017-Jul-17 18:36N 26°49' W 014°57'114.7
2017-Jul-17 18:30N 26°48' W 014°58'814.7
2017-Jul-17 17:57N 26°42' W 015°04'814.6
2017-Jul-17 17:25N 26°37' W 015°11'1915.0
2017-Jul-17 16:08N 26°23' W 015°26'1515.0
2017-Jul-17 15:08N 26°13' W 015°38'314.8
2017-Jul-17 14:57N 26°11' W 015°40'814.8
2017-Jul-17 14:25N 26°05' W 015°46'714.9
2017-Jul-17 13:58N 26°01' W 015°51'714.5
2017-Jul-17 13:30N 25°55' W 015°55'914.8
2017-Jul-17 12:54N 25°46' W 015°59'614.7
2017-Jul-17 12:30N 25°41' W 016°02'814.7
2017-Jul-17 11:58N 25°34' W 016°06'814.4
2017-Jul-17 11:26N 25°28' W 016°10'7714.8
2017-Jul-17 06:14N 24°18' W 016°48'515.1
2017-Jul-17 05:53N 24°14' W 016°50'814.9
2017-Jul-17 05:20N 24°06' W 016°54'1214.6
2017-Jul-17 04:30N 23°56' W 017°01'3014.9
2017-Jul-17 02:31N 23°29' W 017°15'315.2
2017-Jul-17 02:20N 23°27' W 017°16'3714.5
2017-Jul-16 23:47N 22°54' W 017°35'2614.5
2017-Jul-16 22:01N 22°31' W 017°47'017.0
2017-Jul-16 22:00N 22°30' W 017°47'714.2
2017-Jul-16 21:30N 22°24' W 017°50'814.4
2017-Jul-16 20:55N 22°17' W 017°54'5214.7
2017-Jul-16 17:24N 21°31' W 018°19'2114.9
2017-Jul-16 16:00N 21°10' W 018°20'2014.9
2017-Jul-16 14:41N 20°50' W 018°20'11814.9
2017-Jul-16 06:48N 18°52' W 018°20'414.9
2017-Jul-16 06:30N 18°48' W 018°20'  
Track history (hours):
 
Tides and Currents Weather Stations Pressure Air Temp Water Temp Dewpoint Dewpoint Depression Visibility Wind Speed Wind Dir Waves Ship Positions

Nord Imagination

Last reported at 2017-Jul-25 15:20 UTC. Time now 2017-Jul-26 10:27 UTC.
Position N 37°07' W 012°05'.

Length 179 m; draft 10 m.

Type: Ship (hazmat cat D). MMSI: 354828000.

Date/timePositionNaut miles runAvg speedWind from/ knotsBaromVisibWave heightAir tempDewpointWater temp
2017-Jul-25 15:20N 37°07' W 012°05'1911.9
2017-Jul-25 13:44N 37°03' W 011°41'311.6
2017-Jul-25 13:30N 37°02' W 011°38'611.4
2017-Jul-25 12:59N 37°01' W 011°31'811.2
2017-Jul-25 12:16N 36°59' W 011°21'511.6
2017-Jul-25 11:53N 36°58' W 011°16'612.6
2017-Jul-25 11:25N 36°56' W 011°08'1811.6
2017-Jul-25 09:54N 36°50' W 010°48'510.8
2017-Jul-25 09:27N 36°48' W 010°42'711.1
2017-Jul-25 08:51N 36°45' W 010°35'411.3
2017-Jul-25 08:30N 36°43' W 010°31'3611.3
2017-Jul-25 05:20N 36°27' W 009°51'411.4
2017-Jul-25 05:00N 36°26' W 009°47'711.3
2017-Jul-25 04:25N 36°22' W 009°40'511.6
2017-Jul-25 04:00N 36°20' W 009°34'611.5
2017-Jul-25 03:30N 36°18' W 009°28'611.4
2017-Jul-25 03:00N 36°15' W 009°21'611.6
2017-Jul-25 02:30N 36°15' W 009°14'611.6
2017-Jul-25 02:00N 36°16' W 009°07'611.6
2017-Jul-25 01:30N 36°16' W 008°60'611.4
2017-Jul-25 01:00N 36°16' W 008°53'611.4
2017-Jul-25 00:30N 36°15' W 008°46'611.9
2017-Jul-25 00:00N 36°15' W 008°38'611.9
2017-Jul-24 23:30N 36°15' W 008°31'612.0
2017-Jul-24 22:58N 36°15' W 008°23'612.0
2017-Jul-24 22:30N 36°15' W 008°16'612.0
2017-Jul-24 22:00N 36°16' W 008°08'712.1
2017-Jul-24 21:27N 36°16' W 008°00'511.8
2017-Jul-24 21:00N 36°15' W 007°54'912.1
2017-Jul-24 20:17N 36°15' W 007°43'56 2.0
2017-Jul-23 16:22N 36°55' W 006°54'  
2017-Jul-19 02:27N 33°03' W 010°06'1613.9
2017-Jul-19 01:16N 32°48' W 010°15'413.7
2017-Jul-19 01:00N 32°45' W 010°17'714.0
2017-Jul-19 00:29N 32°38' W 010°21'1214.1
2017-Jul-18 23:40N 32°28' W 010°28'1114.3
2017-Jul-18 22:52N 32°18' W 010°33'514.2
2017-Jul-18 22:30N 32°13' W 010°36'714.1
2017-Jul-18 22:01N 32°07' W 010°40'814.2
2017-Jul-18 21:29N 32°00' W 010°44'714.1
2017-Jul-18 21:01N 31°54' W 010°47'713.9
2017-Jul-18 20:29N 31°48' W 010°51'713.8
2017-Jul-18 20:00N 31°42' W 010°55'713.9
2017-Jul-18 19:30N 31°36' W 010°58'714.1
2017-Jul-18 19:00N 31°30' W 011°02'714.1
2017-Jul-18 18:30N 31°23' W 011°06'713.8
2017-Jul-18 18:00N 31°17' W 011°10'713.8
2017-Jul-18 17:30N 31°11' W 011°13'713.8
2017-Jul-18 17:01N 31°05' W 011°17'813.8
2017-Jul-18 16:27N 30°58' W 011°21'614.1
2017-Jul-18 16:00N 30°53' W 011°24'714.3
2017-Jul-18 15:30N 30°46' W 011°28'714.5
2017-Jul-18 15:00N 30°40' W 011°32'1714.7
2017-Jul-18 13:52N 30°25' W 011°41'514.7
2017-Jul-18 13:30N 30°20' W 011°44'714.5
2017-Jul-18 13:00N 30°14' W 011°48'4314.5
2017-Jul-18 10:02N 29°36' W 012°11'114.2
2017-Jul-18 09:58N 29°35' W 012°11'714.4
2017-Jul-18 09:30N 29°29' W 012°15'814.3
2017-Jul-18 08:55N 29°21' W 012°19'614.2
2017-Jul-18 08:30N 29°16' W 012°22'914.2
2017-Jul-18 07:54N 29°09' W 012°27'614.9
2017-Jul-18 07:30N 29°03' W 012°30'714.9
2017-Jul-18 07:00N 28°57' W 012°35'814.7
2017-Jul-18 06:29N 28°52' W 012°41'714.6
2017-Jul-18 06:00N 28°47' W 012°47'714.5
2017-Jul-18 05:30N 28°42' W 012°53'714.4
2017-Jul-18 05:00N 28°36' W 012°58'714.4
2017-Jul-18 04:30N 28°31' W 013°04'714.4
2017-Jul-18 04:00N 28°26' W 013°10'714.3
2017-Jul-18 03:30N 28°21' W 013°15'714.3
2017-Jul-18 03:00N 28°16' W 013°21'714.2
2017-Jul-18 02:30N 28°11' W 013°27'714.4
2017-Jul-18 02:00N 28°06' W 013°33'714.1
2017-Jul-18 01:30N 28°02' W 013°39'714.1
2017-Jul-18 01:00N 27°57' W 013°45'714.4
2017-Jul-18 00:30N 27°52' W 013°50'714.5
2017-Jul-18 00:00N 27°46' W 013°56'714.5
2017-Jul-17 23:30N 27°41' W 014°02'714.4
2017-Jul-17 23:00N 27°36' W 014°08'714.3
2017-Jul-17 22:30N 27°31' W 014°13'814.9
2017-Jul-17 21:59N 27°25' W 014°19'715.1
2017-Jul-17 21:30N 27°20' W 014°25'714.7
2017-Jul-17 21:00N 27°14' W 014°30'714.6
2017-Jul-17 20:30N 27°09' W 014°36'714.2
2017-Jul-17 20:00N 27°04' W 014°41'2014.5
2017-Jul-17 18:36N 26°49' W 014°57'114.7
2017-Jul-17 18:30N 26°48' W 014°58'814.7
2017-Jul-17 17:57N 26°42' W 015°04'814.6
2017-Jul-17 17:25N 26°37' W 015°11'1915.0
2017-Jul-17 16:08N 26°23' W 015°26'1515.0
2017-Jul-17 15:08N 26°13' W 015°38'314.8
2017-Jul-17 14:57N 26°11' W 015°40'814.8
2017-Jul-17 14:25N 26°05' W 015°46'714.9
2017-Jul-17 13:58N 26°01' W 015°51'714.5
2017-Jul-17 13:30N 25°55' W 015°55'914.8
2017-Jul-17 12:54N 25°46' W 015°59'614.7
2017-Jul-17 12:30N 25°41' W 016°02'814.7
2017-Jul-17 11:58N 25°34' W 016°06'814.4
2017-Jul-17 11:26N 25°28' W 016°10'7714.8
2017-Jul-17 06:14N 24°18' W 016°48'515.1
2017-Jul-17 05:53N 24°14' W 016°50'814.9
2017-Jul-17 05:20N 24°06' W 016°54'1214.6
2017-Jul-17 04:30N 23°56' W 017°01'3014.9
2017-Jul-17 02:31N 23°29' W 017°15'315.2
2017-Jul-17 02:20N 23°27' W 017°16'3714.5
2017-Jul-16 23:47N 22°54' W 017°35'2614.5
2017-Jul-16 22:01N 22°31' W 017°47'017.0
2017-Jul-16 22:00N 22°30' W 017°47'714.2
2017-Jul-16 21:30N 22°24' W 017°50'814.4
2017-Jul-16 20:55N 22°17' W 017°54'5214.7
2017-Jul-16 17:24N 21°31' W 018°19'2114.9
2017-Jul-16 16:00N 21°10' W 018°20'2014.9
2017-Jul-16 14:41N 20°50' W 018°20'11814.9
2017-Jul-16 06:48N 18°52' W 018°20'414.9
2017-Jul-16 06:30N 18°48' W 018°20'  

Dump ship's entire track history